sensor_id;sensor_type;location;lat;lon;timestamp;temperature;humidity
33761;DHT22;20084;47.912;19.044;2024-02-26T00:01:01;11.00;99.90
33761;DHT22;20084;47.912;19.044;2024-02-26T00:03:27;11.00;99.90
33761;DHT22;20084;47.912;19.044;2024-02-26T00:05:53;11.10;99.90
33761;DHT22;20084;47.912;19.044;2024-02-26T00:08:19;11.20;99.90
33761;DHT22;20084;47.912;19.044;2024-02-26T00:10:44;11.20;99.90
33761;DHT22;20084;47.912;19.044;2024-02-26T00:13:10;11.20;99.90
33761;DHT22;20084;47.912;19.044;2024-02-26T00:15:35;11.20;99.90
33761;DHT22;20084;47.912;19.044;2024-02-26T00:18:01;11.30;99.90
33761;DHT22;20084;47.912;19.044;2024-02-26T00:20:27;11.30;99.90
33761;DHT22;20084;47.912;19.044;2024-02-26T00:22:52;11.30;99.90
33761;DHT22;20084;47.912;19.044;2024-02-26T00:25:18;11.40;99.90
33761;DHT22;20084;47.912;19.044;2024-02-26T00:27:44;11.30;99.90
33761;DHT22;20084;47.912;19.044;2024-02-26T00:30:10;11.30;99.90
33761;DHT22;20084;47.912;19.044;2024-02-26T00:32:36;11.20;99.90
33761;DHT22;20084;47.912;19.044;2024-02-26T00:35:01;11.20;99.90
33761;DHT22;20084;47.912;19.044;2024-02-26T00:37:27;11.10;99.90
33761;DHT22;20084;47.912;19.044;2024-02-26T00:39:53;11.00;99.90
33761;DHT22;20084;47.912;19.044;2024-02-26T00:42:19;10.90;99.90
33761;DHT22;20084;47.912;19.044;2024-02-26T00:44:45;11.00;99.90
33761;DHT22;20084;47.912;19.044;2024-02-26T00:47:10;11.10;99.90
33761;DHT22;20084;47.912;19.044;2024-02-26T00:49:37;11.20;99.90
33761;DHT22;20084;47.912;19.044;2024-02-26T00:52:02;11.20;99.90
33761;DHT22;20084;47.912;19.044;2024-02-26T00:54:28;11.20;99.90
33761;DHT22;20084;47.912;19.044;2024-02-26T00:56:54;11.20;99.90
33761;DHT22;20084;47.912;19.044;2024-02-26T00:59:20;11.30;99.90
33761;DHT22;20084;47.912;19.044;2024-02-26T01:01:45;11.30;99.90
33761;DHT22;20084;47.912;19.044;2024-02-26T01:04:11;11.40;99.90
33761;DHT22;20084;47.912;19.044;2024-02-26T01:06:37;11.50;99.90
33761;DHT22;20084;47.912;19.044;2024-02-26T01:09:03;11.40;99.90
33761;DHT22;20084;47.912;19.044;2024-02-26T01:11:29;11.40;99.90
33761;DHT22;20084;47.912;19.044;2024-02-26T01:13:54;11.40;99.90
33761;DHT22;20084;47.912;19.044;2024-02-26T01:16:22;11.40;99.90
33761;DHT22;20084;47.912;19.044;2024-02-26T01:18:48;11.50;99.90
33761;DHT22;20084;47.912;19.044;2024-02-26T01:21:14;11.50;99.90
33761;DHT22;20084;47.912;19.044;2024-02-26T01:23:40;11.50;99.90
33761;DHT22;20084;47.912;19.044;2024-02-26T01:26:05;11.50;99.90
33761;DHT22;20084;47.912;19.044;2024-02-26T01:28:31;11.50;99.90
33761;DHT22;20084;47.912;19.044;2024-02-26T01:30:56;11.50;99.90
33761;DHT22;20084;47.912;19.044;2024-02-26T01:33:22;11.50;99.90
33761;DHT22;20084;47.912;19.044;2024-02-26T01:35:48;11.50;99.90
33761;DHT22;20084;47.912;19.044;2024-02-26T01:38:13;11.50;99.90
33761;DHT22;20084;47.912;19.044;2024-02-26T01:40:39;11.50;99.90
33761;DHT22;20084;47.912;19.044;2024-02-26T01:43:04;11.50;99.90
33761;DHT22;20084;47.912;19.044;2024-02-26T01:45:30;11.60;99.90
33761;DHT22;20084;47.912;19.044;2024-02-26T01:47:55;11.40;99.90
33761;DHT22;20084;47.912;19.044;2024-02-26T01:50:22;11.30;99.90
33761;DHT22;20084;47.912;19.044;2024-02-26T01:52:50;11.20;99.90
33761;DHT22;20084;47.912;19.044;2024-02-26T01:55:19;11.20;99.90
33761;DHT22;20084;47.912;19.044;2024-02-26T01:57:46;11.30;99.90
33761;DHT22;20084;47.912;19.044;2024-02-26T02:00:14;11.40;99.90
33761;DHT22;20084;47.912;19.044;2024-02-26T02:02:41;11.50;99.90
33761;DHT22;20084;47.912;19.044;2024-02-26T02:05:08;11.50;99.90
33761;DHT22;20084;47.912;19.044;2024-02-26T02:07:35;11.60;99.90
33761;DHT22;20084;47.912;19.044;2024-02-26T02:10:01;11.60;99.90
33761;DHT22;20084;47.912;19.044;2024-02-26T02:12:28;11.60;99.90
33761;DHT22;20084;47.912;19.044;2024-02-26T02:14:53;11.60;99.90
33761;DHT22;20084;47.912;19.044;2024-02-26T02:17:19;11.60;99.90
33761;DHT22;20084;47.912;19.044;2024-02-26T02:19:46;11.70;99.90
33761;DHT22;20084;47.912;19.044;2024-02-26T02:22:12;11.70;99.90
33761;DHT22;20084;47.912;19.044;2024-02-26T02:24:37;11.80;99.90
33761;DHT22;20084;47.912;19.044;2024-02-26T02:27:03;11.70;99.90
33761;DHT22;20084;47.912;19.044;2024-02-26T02:29:29;11.80;99.90
33761;DHT22;20084;47.912;19.044;2024-02-26T02:31:55;11.70;99.90
33761;DHT22;20084;47.912;19.044;2024-02-26T02:34:21;11.70;99.90
33761;DHT22;20084;47.912;19.044;2024-02-26T02:36:54;11.70;99.90
33761;DHT22;20084;47.912;19.044;2024-02-26T02:39:20;11.60;99.90
33761;DHT22;20084;47.912;19.044;2024-02-26T02:41:46;11.60;99.90
33761;DHT22;20084;47.912;19.044;2024-02-26T02:44:12;11.60;99.90
33761;DHT22;20084;47.912;19.044;2024-02-26T02:46:38;11.60;99.90
33761;DHT22;20084;47.912;19.044;2024-02-26T02:49:04;11.40;99.90
33761;DHT22;20084;47.912;19.044;2024-02-26T02:51:29;11.40;99.90
33761;DHT22;20084;47.912;19.044;2024-02-26T02:53:55;11.40;99.90
33761;DHT22;20084;47.912;19.044;2024-02-26T02:56:21;11.50;99.90
33761;DHT22;20084;47.912;19.044;2024-02-26T02:58:46;11.50;99.90
33761;DHT22;20084;47.912;19.044;2024-02-26T03:01:13;11.60;99.90
33761;DHT22;20084;47.912;19.044;2024-02-26T03:03:39;11.70;99.90
33761;DHT22;20084;47.912;19.044;2024-02-26T03:06:04;11.70;99.90
33761;DHT22;20084;47.912;19.044;2024-02-26T03:08:30;11.70;99.90
33761;DHT22;20084;47.912;19.044;2024-02-26T03:10:55;11.80;99.90
33761;DHT22;20084;47.912;19.044;2024-02-26T03:13:23;11.70;99.90
33761;DHT22;20084;47.912;19.044;2024-02-26T03:15:49;11.60;99.90
33761;DHT22;20084;47.912;19.044;2024-02-26T03:18:14;11.50;99.90
33761;DHT22;20084;47.912;19.044;2024-02-26T03:20:40;11.60;99.90
33761;DHT22;20084;47.912;19.044;2024-02-26T03:23:06;11.60;99.90
33761;DHT22;20084;47.912;19.044;2024-02-26T03:25:32;11.60;99.90
33761;DHT22;20084;47.912;19.044;2024-02-26T03:27:57;11.60;99.90
33761;DHT22;20084;47.912;19.044;2024-02-26T03:30:23;11.70;99.90
33761;DHT22;20084;47.912;19.044;2024-02-26T03:32:48;11.70;99.90
33761;DHT22;20084;47.912;19.044;2024-02-26T03:35:14;11.60;99.90
33761;DHT22;20084;47.912;19.044;2024-02-26T03:37:40;11.60;99.90
33761;DHT22;20084;47.912;19.044;2024-02-26T03:40:06;11.60;99.90
33761;DHT22;20084;47.912;19.044;2024-02-26T03:42:31;11.60;99.90
33761;DHT22;20084;47.912;19.044;2024-02-26T03:44:57;11.40;99.90
33761;DHT22;20084;47.912;19.044;2024-02-26T03:47:23;11.40;99.90
33761;DHT22;20084;47.912;19.044;2024-02-26T03:49:49;11.50;99.90
33761;DHT22;20084;47.912;19.044;2024-02-26T03:52:16;11.50;99.90
33761;DHT22;20084;47.912;19.044;2024-02-26T03:54:41;11.60;99.90
33761;DHT22;20084;47.912;19.044;2024-02-26T03:57:07;11.60;99.90
33761;DHT22;20084;47.912;19.044;2024-02-26T03:59:32;11.60;99.90
33761;DHT22;20084;47.912;19.044;2024-02-26T04:01:58;11.50;99.90
33761;DHT22;20084;47.912;19.044;2024-02-26T04:04:24;11.50;99.90
33761;DHT22;20084;47.912;19.044;2024-02-26T04:06:49;11.50;99.90
33761;DHT22;20084;47.912;19.044;2024-02-26T04:09:15;11.40;99.90
33761;DHT22;20084;47.912;19.044;2024-02-26T04:11:40;11.40;99.90
33761;DHT22;20084;47.912;19.044;2024-02-26T04:14:08;11.40;99.90
33761;DHT22;20084;47.912;19.044;2024-02-26T04:16:35;11.40;99.90
33761;DHT22;20084;47.912;19.044;2024-02-26T04:19:03;11.40;99.90
33761;DHT22;20084;47.912;19.044;2024-02-26T04:21:28;11.40;99.90
33761;DHT22;20084;47.912;19.044;2024-02-26T04:23:54;11.50;99.90
33761;DHT22;20084;47.912;19.044;2024-02-26T04:26:26;11.50;99.90
33761;DHT22;20084;47.912;19.044;2024-02-26T04:28:51;11.60;99.90
33761;DHT22;20084;47.912;19.044;2024-02-26T04:31:18;11.60;99.90
33761;DHT22;20084;47.912;19.044;2024-02-26T04:33:44;11.60;99.90
33761;DHT22;20084;47.912;19.044;2024-02-26T04:36:16;11.50;99.90
33761;DHT22;20084;47.912;19.044;2024-02-26T04:38:45;11.50;99.90
33761;DHT22;20084;47.912;19.044;2024-02-26T04:41:11;11.50;99.90
33761;DHT22;20084;47.912;19.044;2024-02-26T04:43:37;11.60;99.90
33761;DHT22;20084;47.912;19.044;2024-02-26T04:46:10;11.60;99.90
33761;DHT22;20084;47.912;19.044;2024-02-26T04:48:36;11.60;99.90
33761;DHT22;20084;47.912;19.044;2024-02-26T04:51:02;11.60;99.90
33761;DHT22;20084;47.912;19.044;2024-02-26T04:53:28;11.60;99.90
33761;DHT22;20084;47.912;19.044;2024-02-26T04:55:54;11.60;99.90
33761;DHT22;20084;47.912;19.044;2024-02-26T04:58:19;11.60;99.90
33761;DHT22;20084;47.912;19.044;2024-02-26T05:00:45;11.60;99.90
33761;DHT22;20084;47.912;19.044;2024-02-26T05:03:11;11.60;99.90
33761;DHT22;20084;47.912;19.044;2024-02-26T05:05:44;11.60;99.90
33761;DHT22;20084;47.912;19.044;2024-02-26T05:08:09;11.60;99.90
33761;DHT22;20084;47.912;19.044;2024-02-26T05:10:35;11.60;99.90
33761;DHT22;20084;47.912;19.044;2024-02-26T05:13:05;11.50;99.90
33761;DHT22;20084;47.912;19.044;2024-02-26T05:15:30;11.50;99.90
33761;DHT22;20084;47.912;19.044;2024-02-26T05:17:56;11.60;99.90
33761;DHT22;20084;47.912;19.044;2024-02-26T05:20:21;11.60;99.90
33761;DHT22;20084;47.912;19.044;2024-02-26T05:22:47;11.70;99.90
33761;DHT22;20084;47.912;19.044;2024-02-26T05:25:15;11.70;99.90
33761;DHT22;20084;47.912;19.044;2024-02-26T05:27:41;11.70;99.90
33761;DHT22;20084;47.912;19.044;2024-02-26T05:30:07;11.70;99.90
33761;DHT22;20084;47.912;19.044;2024-02-26T05:32:33;11.60;99.90
33761;DHT22;20084;47.912;19.044;2024-02-26T05:34:58;11.60;99.90
33761;DHT22;20084;47.912;19.044;2024-02-26T05:37:24;11.60;99.90
33761;DHT22;20084;47.912;19.044;2024-02-26T05:39:50;11.60;99.90
33761;DHT22;20084;47.912;19.044;2024-02-26T05:42:15;11.50;99.90
33761;DHT22;20084;47.912;19.044;2024-02-26T05:44:41;11.50;99.90
33761;DHT22;20084;47.912;19.044;2024-02-26T05:47:07;11.40;99.90
33761;DHT22;20084;47.912;19.044;2024-02-26T05:49:32;11.50;99.90
33761;DHT22;20084;47.912;19.044;2024-02-26T05:51:59;11.50;99.90
33761;DHT22;20084;47.912;19.044;2024-02-26T05:54:24;11.50;99.90
33761;DHT22;20084;47.912;19.044;2024-02-26T05:56:50;11.40;99.90
33761;DHT22;20084;47.912;19.044;2024-02-26T05:59:15;11.50;99.90
33761;DHT22;20084;47.912;19.044;2024-02-26T06:01:41;11.50;99.90
33761;DHT22;20084;47.912;19.044;2024-02-26T06:04:07;11.50;99.90
33761;DHT22;20084;47.912;19.044;2024-02-26T06:06:32;11.50;99.90
33761;DHT22;20084;47.912;19.044;2024-02-26T06:08:58;11.50;99.90
33761;DHT22;20084;47.912;19.044;2024-02-26T06:11:24;11.60;99.90
33761;DHT22;20084;47.912;19.044;2024-02-26T06:13:49;11.60;99.90
33761;DHT22;20084;47.912;19.044;2024-02-26T06:16:15;11.60;99.90
33761;DHT22;20084;47.912;19.044;2024-02-26T06:18:41;11.60;99.90
33761;DHT22;20084;47.912;19.044;2024-02-26T06:21:09;11.50;99.90
33761;DHT22;20084;47.912;19.044;2024-02-26T06:23:35;11.50;99.90
33761;DHT22;20084;47.912;19.044;2024-02-26T06:26:01;11.60;99.90
33761;DHT22;20084;47.912;19.044;2024-02-26T06:28:27;11.60;99.90
33761;DHT22;20084;47.912;19.044;2024-02-26T06:30:55;11.60;99.90
33761;DHT22;20084;47.912;19.044;2024-02-26T06:33:21;11.60;99.90
33761;DHT22;20084;47.912;19.044;2024-02-26T06:35:47;11.60;99.90
33761;DHT22;20084;47.912;19.044;2024-02-26T06:38:12;11.60;99.90
33761;DHT22;20084;47.912;19.044;2024-02-26T06:40:39;11.60;99.90
33761;DHT22;20084;47.912;19.044;2024-02-26T06:43:05;11.50;99.90
33761;DHT22;20084;47.912;19.044;2024-02-26T06:45:31;11.50;99.90
33761;DHT22;20084;47.912;19.044;2024-02-26T06:47:57;11.60;99.90
33761;DHT22;20084;47.912;19.044;2024-02-26T06:50:22;11.60;99.90
33761;DHT22;20084;47.912;19.044;2024-02-26T06:52:48;11.60;99.90
33761;DHT22;20084;47.912;19.044;2024-02-26T06:55:14;11.60;99.90
33761;DHT22;20084;47.912;19.044;2024-02-26T06:57:40;11.70;99.90
33761;DHT22;20084;47.912;19.044;2024-02-26T07:00:05;11.80;99.90
33761;DHT22;20084;47.912;19.044;2024-02-26T07:02:31;11.90;99.90
33761;DHT22;20084;47.912;19.044;2024-02-26T07:04:57;11.90;99.90
33761;DHT22;20084;47.912;19.044;2024-02-26T07:07:24;12.00;99.90
33761;DHT22;20084;47.912;19.044;2024-02-26T07:09:50;12.00;99.90
33761;DHT22;20084;47.912;19.044;2024-02-26T07:12:16;12.00;99.90
33761;DHT22;20084;47.912;19.044;2024-02-26T07:14:42;12.00;99.90
33761;DHT22;20084;47.912;19.044;2024-02-26T07:17:08;12.00;99.90
33761;DHT22;20084;47.912;19.044;2024-02-26T07:19:34;12.10;99.90
33761;DHT22;20084;47.912;19.044;2024-02-26T07:21:59;12.10;99.90
33761;DHT22;20084;47.912;19.044;2024-02-26T07:24:27;12.20;99.90
33761;DHT22;20084;47.912;19.044;2024-02-26T07:26:53;12.20;99.90
33761;DHT22;20084;47.912;19.044;2024-02-26T07:29:20;12.30;99.90
33761;DHT22;20084;47.912;19.044;2024-02-26T07:31:46;12.30;99.90
33761;DHT22;20084;47.912;19.044;2024-02-26T07:34:12;12.30;99.90
33761;DHT22;20084;47.912;19.044;2024-02-26T07:36:38;12.30;99.90
33761;DHT22;20084;47.912;19.044;2024-02-26T07:39:04;12.30;99.90
33761;DHT22;20084;47.912;19.044;2024-02-26T07:41:31;12.30;99.90
33761;DHT22;20084;47.912;19.044;2024-02-26T07:43:56;12.30;99.90
33761;DHT22;20084;47.912;19.044;2024-02-26T07:46:22;12.40;99.90
33761;DHT22;20084;47.912;19.044;2024-02-26T07:48:47;12.40;99.90
33761;DHT22;20084;47.912;19.044;2024-02-26T07:51:13;12.40;99.90
33761;DHT22;20084;47.912;19.044;2024-02-26T07:53:39;12.50;99.90
33761;DHT22;20084;47.912;19.044;2024-02-26T07:56:05;12.50;99.90
33761;DHT22;20084;47.912;19.044;2024-02-26T07:58:32;12.50;99.90
33761;DHT22;20084;47.912;19.044;2024-02-26T08:00:58;12.50;99.90
33761;DHT22;20084;47.912;19.044;2024-02-26T08:03:24;12.50;99.90
33761;DHT22;20084;47.912;19.044;2024-02-26T08:05:51;12.60;99.90
33761;DHT22;20084;47.912;19.044;2024-02-26T08:08:16;12.60;99.90
33761;DHT22;20084;47.912;19.044;2024-02-26T08:10:42;12.50;99.90
33761;DHT22;20084;47.912;19.044;2024-02-26T08:13:08;12.50;99.90
33761;DHT22;20084;47.912;19.044;2024-02-26T08:15:35;12.60;99.90
33761;DHT22;20084;47.912;19.044;2024-02-26T08:18:01;12.70;99.90
33761;DHT22;20084;47.912;19.044;2024-02-26T08:20:31;12.70;99.90
33761;DHT22;20084;47.912;19.044;2024-02-26T08:22:57;12.50;99.90
33761;DHT22;20084;47.912;19.044;2024-02-26T08:25:23;12.40;99.90
33761;DHT22;20084;47.912;19.044;2024-02-26T08:27:49;12.50;99.90
33761;DHT22;20084;47.912;19.044;2024-02-26T08:30:15;12.40;99.90
33761;DHT22;20084;47.912;19.044;2024-02-26T08:32:48;12.40;99.90
33761;DHT22;20084;47.912;19.044;2024-02-26T08:35:14;12.20;99.90
33761;DHT22;20084;47.912;19.044;2024-02-26T08:37:40;12.20;99.90
33761;DHT22;20084;47.912;19.044;2024-02-26T08:40:06;12.30;99.90
33761;DHT22;20084;47.912;19.044;2024-02-26T08:42:32;12.40;99.90
33761;DHT22;20084;47.912;19.044;2024-02-26T08:44:58;12.40;99.90
33761;DHT22;20084;47.912;19.044;2024-02-26T08:47:26;12.50;99.90
33761;DHT22;20084;47.912;19.044;2024-02-26T08:49:53;12.50;99.90
33761;DHT22;20084;47.912;19.044;2024-02-26T08:52:19;12.40;99.90
33761;DHT22;20084;47.912;19.044;2024-02-26T08:54:44;12.40;99.90
33761;DHT22;20084;47.912;19.044;2024-02-26T08:57:10;12.30;99.90
33761;DHT22;20084;47.912;19.044;2024-02-26T08:59:36;12.40;99.90
33761;DHT22;20084;47.912;19.044;2024-02-26T09:02:01;12.40;99.90
33761;DHT22;20084;47.912;19.044;2024-02-26T09:04:27;12.50;99.90
33761;DHT22;20084;47.912;19.044;2024-02-26T09:06:53;12.50;99.90
33761;DHT22;20084;47.912;19.044;2024-02-26T09:09:19;12.60;99.90
33761;DHT22;20084;47.912;19.044;2024-02-26T09:11:45;12.60;99.90
33761;DHT22;20084;47.912;19.044;2024-02-26T09:14:12;12.60;99.90
33761;DHT22;20084;47.912;19.044;2024-02-26T09:16:37;12.60;99.90
33761;DHT22;20084;47.912;19.044;2024-02-26T09:19:03;12.50;99.90
33761;DHT22;20084;47.912;19.044;2024-02-26T09:21:28;12.60;99.90
33761;DHT22;20084;47.912;19.044;2024-02-26T09:23:54;12.40;99.90
33761;DHT22;20084;47.912;19.044;2024-02-26T09:26:20;12.10;99.90
33761;DHT22;20084;47.912;19.044;2024-02-26T09:28:46;12.10;99.90
33761;DHT22;20084;47.912;19.044;2024-02-26T09:31:11;12.00;99.90
33761;DHT22;20084;47.912;19.044;2024-02-26T09:33:37;12.20;99.90
33761;DHT22;20084;47.912;19.044;2024-02-26T09:36:04;12.30;99.90
33761;DHT22;20084;47.912;19.044;2024-02-26T09:38:30;12.40;99.90
33761;DHT22;20084;47.912;19.044;2024-02-26T09:40:59;12.50;99.90
33761;DHT22;20084;47.912;19.044;2024-02-26T09:43:28;12.60;99.90
33761;DHT22;20084;47.912;19.044;2024-02-26T09:45:59;12.60;99.90
33761;DHT22;20084;47.912;19.044;2024-02-26T09:48:25;12.70;99.90
33761;DHT22;20084;47.912;19.044;2024-02-26T09:50:51;12.80;99.90
33761;DHT22;20084;47.912;19.044;2024-02-26T09:53:18;12.90;99.90
33761;DHT22;20084;47.912;19.044;2024-02-26T09:55:47;13.00;99.90
33761;DHT22;20084;47.912;19.044;2024-02-26T09:58:13;13.00;99.90
33761;DHT22;20084;47.912;19.044;2024-02-26T10:00:47;13.00;99.90
33761;DHT22;20084;47.912;19.044;2024-02-26T10:03:17;13.00;99.90
33761;DHT22;20084;47.912;19.044;2024-02-26T10:05:44;13.00;99.90
33761;DHT22;20084;47.912;19.044;2024-02-26T10:08:11;13.00;99.90
33761;DHT22;20084;47.912;19.044;2024-02-26T10:10:39;13.00;99.90
33761;DHT22;20084;47.912;19.044;2024-02-26T10:13:04;13.00;99.90
33761;DHT22;20084;47.912;19.044;2024-02-26T10:15:36;13.10;99.90
33761;DHT22;20084;47.912;19.044;2024-02-26T10:18:05;13.10;99.90
33761;DHT22;20084;47.912;19.044;2024-02-26T10:20:31;13.10;99.90
33761;DHT22;20084;47.912;19.044;2024-02-26T10:22:58;13.10;99.90
33761;DHT22;20084;47.912;19.044;2024-02-26T10:25:23;13.10;99.90
33761;DHT22;20084;47.912;19.044;2024-02-26T10:27:49;13.20;99.90
33761;DHT22;20084;47.912;19.044;2024-02-26T10:30:22;13.20;99.90
33761;DHT22;20084;47.912;19.044;2024-02-26T10:32:51;13.20;99.90
33761;DHT22;20084;47.912;19.044;2024-02-26T10:35:18;13.10;99.90
33761;DHT22;20084;47.912;19.044;2024-02-26T10:37:44;13.00;99.90
33761;DHT22;20084;47.912;19.044;2024-02-26T10:40:10;13.00;99.90
33761;DHT22;20084;47.912;19.044;2024-02-26T10:42:36;13.20;99.90
33761;DHT22;20084;47.912;19.044;2024-02-26T10:45:04;13.20;99.90
33761;DHT22;20084;47.912;19.044;2024-02-26T10:47:30;13.30;99.90
33761;DHT22;20084;47.912;19.044;2024-02-26T10:49:57;13.30;99.90
33761;DHT22;20084;47.912;19.044;2024-02-26T10:52:25;13.40;99.90
33761;DHT22;20084;47.912;19.044;2024-02-26T10:54:54;13.50;99.90
33761;DHT22;20084;47.912;19.044;2024-02-26T10:57:21;13.50;99.90
33761;DHT22;20084;47.912;19.044;2024-02-26T10:59:48;13.50;99.90
33761;DHT22;20084;47.912;19.044;2024-02-26T11:02:14;13.60;99.90
33761;DHT22;20084;47.912;19.044;2024-02-26T11:04:41;13.60;99.90
33761;DHT22;20084;47.912;19.044;2024-02-26T11:07:09;13.50;99.90
33761;DHT22;20084;47.912;19.044;2024-02-26T11:09:35;13.50;99.90
33761;DHT22;20084;47.912;19.044;2024-02-26T11:12:09;13.60;99.90
33761;DHT22;20084;47.912;19.044;2024-02-26T11:14:41;13.60;99.90
33761;DHT22;20084;47.912;19.044;2024-02-26T11:17:08;13.70;99.90
33761;DHT22;20084;47.912;19.044;2024-02-26T11:19:36;13.70;99.90
33761;DHT22;20084;47.912;19.044;2024-02-26T11:22:03;13.70;99.90
33761;DHT22;20084;47.912;19.044;2024-02-26T11:24:29;13.70;99.90
33761;DHT22;20084;47.912;19.044;2024-02-26T11:26:57;13.70;99.90
33761;DHT22;20084;47.912;19.044;2024-02-26T11:29:38;13.70;99.90
33761;DHT22;20084;47.912;19.044;2024-02-26T11:32:06;13.60;99.90
33761;DHT22;20084;47.912;19.044;2024-02-26T11:34:32;13.70;99.90
33761;DHT22;20084;47.912;19.044;2024-02-26T11:36:58;13.80;99.90
33761;DHT22;20084;47.912;19.044;2024-02-26T11:39:33;13.80;99.90
33761;DHT22;20084;47.912;19.044;2024-02-26T11:42:06;13.70;99.90
33761;DHT22;20084;47.912;19.044;2024-02-26T11:44:32;13.60;99.90
33761;DHT22;20084;47.912;19.044;2024-02-26T11:46:57;13.60;99.90
33761;DHT22;20084;47.912;19.044;2024-02-26T11:51:57;13.70;99.90
33761;DHT22;20084;47.912;19.044;2024-02-26T11:54:47;13.70;99.90
33761;DHT22;20084;47.912;19.044;2024-02-26T11:57:21;13.80;99.90
33761;DHT22;20084;47.912;19.044;2024-02-26T11:59:47;13.90;99.90
33761;DHT22;20084;47.912;19.044;2024-02-26T12:02:39;13.90;99.90
33761;DHT22;20084;47.912;19.044;2024-02-26T12:07:40;14.00;99.90
33761;DHT22;20084;47.912;19.044;2024-02-26T12:10:24;14.00;99.90
33761;DHT22;20084;47.912;19.044;2024-02-26T12:13:12;14.00;99.90
33761;DHT22;20084;47.912;19.044;2024-02-26T12:15:43;14.00;99.90
33761;DHT22;20084;47.912;19.044;2024-02-26T12:18:15;14.00;99.90
33761;DHT22;20084;47.912;19.044;2024-02-26T12:20:42;14.10;99.90
33761;DHT22;20084;47.912;19.044;2024-02-26T12:23:14;14.00;99.90
33761;DHT22;20084;47.912;19.044;2024-02-26T12:25:39;14.00;99.90
33761;DHT22;20084;47.912;19.044;2024-02-26T12:28:05;14.10;99.90
33761;DHT22;20084;47.912;19.044;2024-02-26T12:30:32;14.10;99.90
33761;DHT22;20084;47.912;19.044;2024-02-26T12:32:59;14.20;99.90
33761;DHT22;20084;47.912;19.044;2024-02-26T12:35:27;14.20;99.90
33761;DHT22;20084;47.912;19.044;2024-02-26T12:37:56;14.20;99.90
33761;DHT22;20084;47.912;19.044;2024-02-26T12:40:21;14.20;99.90
33761;DHT22;20084;47.912;19.044;2024-02-26T12:42:48;14.20;99.90
33761;DHT22;20084;47.912;19.044;2024-02-26T12:45:14;14.10;99.90
33761;DHT22;20084;47.912;19.044;2024-02-26T12:47:42;14.10;99.90
33761;DHT22;20084;47.912;19.044;2024-02-26T12:50:09;14.10;99.90
33761;DHT22;20084;47.912;19.044;2024-02-26T12:52:39;14.10;99.90
33761;DHT22;20084;47.912;19.044;2024-02-26T12:55:05;14.10;99.90
33761;DHT22;20084;47.912;19.044;2024-02-26T12:57:36;14.10;99.90
33761;DHT22;20084;47.912;19.044;2024-02-26T13:00:03;14.20;99.90
33761;DHT22;20084;47.912;19.044;2024-02-26T13:02:30;14.20;99.90
33761;DHT22;20084;47.912;19.044;2024-02-26T13:04:57;14.20;99.90
33761;DHT22;20084;47.912;19.044;2024-02-26T13:07:23;14.10;99.90
33761;DHT22;20084;47.912;19.044;2024-02-26T13:09:49;14.10;99.90
33761;DHT22;20084;47.912;19.044;2024-02-26T13:12:16;14.10;99.90
33761;DHT22;20084;47.912;19.044;2024-02-26T13:14:42;14.10;99.90
33761;DHT22;20084;47.912;19.044;2024-02-26T13:17:07;14.10;99.90
33761;DHT22;20084;47.912;19.044;2024-02-26T13:19:33;14.00;99.90
33761;DHT22;20084;47.912;19.044;2024-02-26T13:22:06;14.00;99.90
33761;DHT22;20084;47.912;19.044;2024-02-26T13:24:35;14.10;99.90
33761;DHT22;20084;47.912;19.044;2024-02-26T13:27:02;14.10;99.90
33761;DHT22;20084;47.912;19.044;2024-02-26T13:29:30;14.20;99.90
33761;DHT22;20084;47.912;19.044;2024-02-26T13:31:57;14.10;99.90
33761;DHT22;20084;47.912;19.044;2024-02-26T13:34:27;14.10;99.90
33761;DHT22;20084;47.912;19.044;2024-02-26T13:36:54;14.20;99.90
33761;DHT22;20084;47.912;19.044;2024-02-26T13:39:27;14.10;99.90
33761;DHT22;20084;47.912;19.044;2024-02-26T13:41:54;14.10;99.90
33761;DHT22;20084;47.912;19.044;2024-02-26T13:44:20;14.00;99.90
33761;DHT22;20084;47.912;19.044;2024-02-26T13:46:46;14.00;99.90
33761;DHT22;20084;47.912;19.044;2024-02-26T13:49:12;14.10;99.90
33761;DHT22;20084;47.912;19.044;2024-02-26T13:51:41;14.10;99.90
33761;DHT22;20084;47.912;19.044;2024-02-26T13:54:07;14.30;99.90
33761;DHT22;20084;47.912;19.044;2024-02-26T13:56:33;14.40;99.90
33761;DHT22;20084;47.912;19.044;2024-02-26T13:58:59;14.40;99.90
33761;DHT22;20084;47.912;19.044;2024-02-26T14:01:25;14.60;99.90
33761;DHT22;20084;47.912;19.044;2024-02-26T14:03:50;14.70;99.90
33761;DHT22;20084;47.912;19.044;2024-02-26T14:06:16;14.80;99.90
33761;DHT22;20084;47.912;19.044;2024-02-26T14:08:42;14.90;99.90
33761;DHT22;20084;47.912;19.044;2024-02-26T14:11:08;14.90;99.90
33761;DHT22;20084;47.912;19.044;2024-02-26T14:13:34;14.90;99.90
33761;DHT22;20084;47.912;19.044;2024-02-26T14:15:59;14.80;99.90
33761;DHT22;20084;47.912;19.044;2024-02-26T14:18:25;14.90;99.90
33761;DHT22;20084;47.912;19.044;2024-02-26T14:20:50;14.80;99.90
33761;DHT22;20084;47.912;19.044;2024-02-26T14:23:16;14.80;99.90
33761;DHT22;20084;47.912;19.044;2024-02-26T14:25:42;14.80;99.90
33761;DHT22;20084;47.912;19.044;2024-02-26T14:28:08;14.70;99.90
33761;DHT22;20084;47.912;19.044;2024-02-26T14:30:34;14.70;99.90
33761;DHT22;20084;47.912;19.044;2024-02-26T14:33:00;14.60;99.90
33761;DHT22;20084;47.912;19.044;2024-02-26T14:35:25;14.60;99.90
33761;DHT22;20084;47.912;19.044;2024-02-26T14:37:51;14.60;99.90
33761;DHT22;20084;47.912;19.044;2024-02-26T14:40:17;14.50;99.90
33761;DHT22;20084;47.912;19.044;2024-02-26T14:42:44;14.50;99.90
33761;DHT22;20084;47.912;19.044;2024-02-26T14:45:10;14.50;99.90
33761;DHT22;20084;47.912;19.044;2024-02-26T14:47:36;14.60;99.90
33761;DHT22;20084;47.912;19.044;2024-02-26T14:50:03;14.50;99.90
33761;DHT22;20084;47.912;19.044;2024-02-26T14:52:29;14.50;99.90
33761;DHT22;20084;47.912;19.044;2024-02-26T14:54:54;14.50;99.90
33761;DHT22;20084;47.912;19.044;2024-02-26T14:57:20;14.40;99.90
33761;DHT22;20084;47.912;19.044;2024-02-26T14:59:45;14.40;99.90
33761;DHT22;20084;47.912;19.044;2024-02-26T15:02:11;14.50;99.90
33761;DHT22;20084;47.912;19.044;2024-02-26T15:04:37;14.50;99.90
33761;DHT22;20084;47.912;19.044;2024-02-26T15:07:03;14.50;99.90
33761;DHT22;20084;47.912;19.044;2024-02-26T15:09:29;14.40;99.90
33761;DHT22;20084;47.912;19.044;2024-02-26T15:11:54;14.50;99.90
33761;DHT22;20084;47.912;19.044;2024-02-26T15:14:23;14.50;99.90
33761;DHT22;20084;47.912;19.044;2024-02-26T15:16:48;14.40;99.90